Time;durP1;ratioP1;P1;durP2;ratioP2;P2;SDS_P1;SDS_P2;PMS_P1;PMS_P2;Temp;Humidity;BMP_temperature;BMP_pressure;BME280_temperature;BME280_humidity;BME280_pressure;Samples;Min_cycle;Max_cycle;Signal;HPM_P1;HPM_P2
2023/04/13 00:00:20;;;;;;;2.43;0.77;;;6.70;99.90;;;;;;5057206;28;20172;-78
2023/04/13 00:02:52;;;;;;;1.93;0.80;;;6.70;99.90;;;;;;5058721;28;20220;-78
2023/04/13 00:05:18;;;;;;;1.57;0.70;;;6.70;99.90;;;;;;5057636;28;20664;-79
2023/04/13 00:07:44;;;;;;;3.53;1.00;;;6.80;99.90;;;;;;5057401;28;20202;-78
2023/04/13 00:10:10;;;;;;;1.87;0.80;;;6.80;99.90;;;;;;5058640;28;20256;-79
2023/04/13 00:12:36;;;;;;;3.07;0.70;;;6.80;99.90;;;;;;5059990;28;20666;-79
2023/04/13 00:15:04;;;;;;;2.33;0.80;;;6.90;99.90;;;;;;5060073;28;20213;-79
2023/04/13 00:17:30;;;;;;;2.57;1.03;;;6.90;99.90;;;;;;5059867;28;20275;-79
2023/04/13 00:19:58;;;;;;;1.87;0.87;;;6.90;99.90;;;;;;5059698;28;20224;-79
2023/04/13 00:22:25;;;;;;;3.00;1.13;;;6.90;99.90;;;;;;5060236;28;20666;-79
2023/04/13 00:24:54;;;;;;;5.00;1.20;;;7.00;99.90;;;;;;5058210;28;20179;-79
2023/04/13 00:27:25;;;;;;;1.97;0.80;;;7.10;99.90;;;;;;5059858;28;20168;-80
2023/04/13 00:29:51;;;;;;;1.00;0.60;;;7.00;99.90;;;;;;5060063;28;20144;-80
2023/04/13 00:32:16;;;;;;;2.07;0.63;;;7.10;99.90;;;;;;5058828;28;20172;-80
2023/04/13 00:34:43;;;;;;;1.00;0.60;;;7.10;99.90;;;;;;5058312;28;20180;-79
2023/04/13 00:37:10;;;;;;;2.73;0.67;;;7.10;99.90;;;;;;5057431;28;20179;-80
2023/04/13 00:39:36;;;;;;;3.10;1.17;;;7.10;99.90;;;;;;5058408;28;20298;-79
2023/04/13 00:42:02;;;;;;;3.60;1.00;;;7.10;99.90;;;;;;5058967;28;20168;-79
2023/04/13 00:44:29;;;;;;;1.33;0.73;;;7.10;99.90;;;;;;5058415;28;20172;-79
2023/04/13 00:46:55;;;;;;;3.83;0.60;;;7.10;99.90;;;;;;5056620;28;20262;-80
2023/04/13 00:49:21;;;;;;;3.03;0.70;;;7.10;99.90;;;;;;5056667;28;20640;-79
2023/04/13 00:51:47;;;;;;;2.67;1.13;;;7.00;99.90;;;;;;5058622;28;20710;-79
2023/04/13 00:54:15;;;;;;;2.40;1.00;;;7.00;99.90;;;;;;5058488;28;20189;-79
2023/04/13 00:56:41;;;;;;;1.93;0.70;;;7.00;99.90;;;;;;5058966;28;20254;-79
2023/04/13 00:59:09;;;;;;;1.33;0.80;;;7.00;99.90;;;;;;5057775;28;20182;-79
2023/04/13 01:01:44;;;;;;;4.70;1.60;;;7.00;99.90;;;;;;5058790;28;20183;-79
2023/04/13 01:04:12;;;;;;;1.00;0.60;;;7.00;99.90;;;;;;5057881;28;20190;-78
2023/04/13 01:06:43;;;;;;;1.93;0.80;;;7.00;99.90;;;;;;5056680;28;20202;-79
2023/04/13 01:09:18;;;;;;;2.50;1.00;;;7.00;99.90;;;;;;5058260;28;20184;-79
2023/04/13 01:11:58;;;;;;;1.90;0.73;;;7.00;99.90;;;;;;5058792;28;20189;-79
2023/04/13 01:14:42;;;;;;;5.90;0.80;;;6.90;99.90;;;;;;5056898;28;20420;-80
2023/04/13 01:17:20;;;;;;;2.03;0.70;;;6.90;99.90;;;;;;5058402;28;20160;-79
2023/04/13 01:19:56;;;;;;;1.70;0.70;;;6.90;99.90;;;;;;5058945;28;20186;-79
2023/04/13 01:22:27;;;;;;;2.10;0.70;;;7.00;99.90;;;;;;5058254;28;20242;-79
2023/04/13 01:25:13;;;;;;;3.67;0.73;;;7.00;99.90;;;;;;5058765;28;20164;-78
2023/04/13 01:27:52;;;;;;;1.77;0.73;;;7.00;99.90;;;;;;5056685;28;20223;-79
2023/04/13 01:30:21;;;;;;;2.97;0.70;;;7.00;99.90;;;;;;5071330;28;20166;-79
2023/04/13 01:32:47;;;;;;;3.23;1.10;;;7.00;99.90;;;;;;5070727;28;20188;-79
2023/04/13 01:35:14;;;;;;;3.67;0.83;;;7.00;99.90;;;;;;5058915;28;20176;-79
2023/04/13 01:37:42;;;;;;;1.47;0.60;;;7.10;99.90;;;;;;5055864;28;20670;-79
2023/04/13 01:40:11;;;;;;;1.83;0.50;;;7.10;99.90;;;;;;5057331;28;20198;-79
2023/04/13 01:42:41;;;;;;;2.87;0.80;;;7.10;99.90;;;;;;5056880;28;20195;-78
2023/04/13 01:45:10;;;;;;;0.80;0.50;;;7.10;99.90;;;;;;5058903;28;20178;-79
2023/04/13 01:47:40;;;;;;;0.63;0.40;;;7.20;99.90;;;;;;5058991;28;20223;-79
2023/04/13 01:50:32;;;;;;;1.77;0.70;;;7.20;99.90;;;;;;5059699;28;20148;-78
2023/04/13 01:53:06;;;;;;;2.93;1.07;;;7.30;99.90;;;;;;5059381;28;20197;-80
2023/04/13 01:55:37;;;;;;;2.20;0.80;;;7.30;99.90;;;;;;5059289;28;20518;-79
2023/04/13 01:58:04;;;;;;;1.23;0.60;;;7.30;99.90;;;;;;5058258;28;20168;-80
2023/04/13 02:00:36;;;;;;;2.33;0.77;;;7.30;99.90;;;;;;5059577;28;20261;-80
2023/04/13 02:03:03;;;;;;;1.23;0.43;;;7.30;99.90;;;;;;5059343;28;20195;-79
2023/04/13 02:05:30;;;;;;;1.57;0.60;;;7.30;99.90;;;;;;5058797;28;20181;-80
2023/04/13 02:07:56;;;;;;;1.90;0.63;;;7.30;99.90;;;;;;5057633;28;20286;-80
2023/04/13 02:10:21;;;;;;;3.27;0.80;;;7.30;99.90;;;;;;5058264;28;20218;-80
2023/04/13 02:12:47;;;;;;;2.57;0.77;;;7.30;99.90;;;;;;5057861;28;20270;-80
2023/04/13 02:15:13;;;;;;;1.10;0.50;;;7.40;99.90;;;;;;5058191;28;20251;-79
2023/04/13 02:17:40;;;;;;;2.27;0.50;;;7.40;99.90;;;;;;5061070;28;20190;-80
2023/04/13 02:20:13;;;;;;;4.10;0.83;;;7.50;99.90;;;;;;5062967;28;20302;-80
2023/04/13 02:22:40;;;;;;;1.87;0.90;;;7.40;99.90;;;;;;5061631;28;20221;-79
2023/04/13 02:25:07;;;;;;;0.60;0.43;;;7.40;99.90;;;;;;5062873;28;20188;-79
2023/04/13 02:27:34;;;;;;;3.73;0.73;;;7.50;99.90;;;;;;5062331;28;20280;-80
2023/04/13 02:30:00;;;;;;;4.00;0.90;;;7.50;99.90;;;;;;5061038;28;20167;-80
2023/04/13 02:32:26;;;;;;;2.53;0.63;;;7.50;99.90;;;;;;5061870;28;20184;-80
2023/04/13 02:34:52;;;;;;;2.77;0.50;;;7.50;99.90;;;;;;5059774;28;20190;-79
2023/04/13 02:37:19;;;;;;;1.53;0.57;;;7.50;99.90;;;;;;5059633;28;20175;-79
2023/04/13 02:39:45;;;;;;;1.93;0.70;;;7.50;99.90;;;;;;5059733;28;20188;-80
2023/04/13 02:42:10;;;;;;;2.03;0.60;;;7.60;99.90;;;;;;5061320;28;20285;-81
2023/04/13 02:44:37;;;;;;;2.00;0.87;;;7.50;99.90;;;;;;5061244;28;20172;-79
2023/04/13 02:47:03;;;;;;;2.37;0.80;;;7.50;99.90;;;;;;5061536;28;20164;-80
2023/04/13 02:49:29;;;;;;;1.40;0.67;;;7.60;99.90;;;;;;5061587;28;20551;-80
2023/04/13 02:51:54;;;;;;;1.90;0.70;;;7.60;99.90;;;;;;5060335;28;20194;-80
2023/04/13 02:54:20;;;;;;;4.27;1.00;;;7.60;99.90;;;;;;5061392;28;20237;-80
2023/04/13 02:56:46;;;;;;;2.13;0.67;;;7.60;99.90;;;;;;5061614;28;20255;-79
2023/04/13 02:59:11;;;;;;;1.87;0.77;;;7.60;99.90;;;;;;5059801;28;20179;-80
2023/04/13 03:01:38;;;;;;;2.47;0.60;;;7.60;99.90;;;;;;5060660;28;20184;-79
2023/04/13 03:04:03;;;;;;;4.23;1.03;;;7.60;99.90;;;;;;5058436;28;20196;-80
2023/04/13 03:06:30;;;;;;;3.03;0.67;;;7.70;99.90;;;;;;5059888;28;20227;-81
2023/04/13 03:08:55;;;;;;;0.60;0.53;;;7.60;99.90;;;;;;5059255;28;20229;-79
2023/04/13 03:11:25;;;;;;;2.83;0.60;;;7.70;99.90;;;;;;5060839;28;20188;-79
2023/04/13 03:13:52;;;;;;;2.43;0.70;;;7.60;99.90;;;;;;5060648;28;20233;-80
2023/04/13 03:16:18;;;;;;;2.67;0.80;;;7.70;99.90;;;;;;5061376;28;20203;-80
2023/04/13 03:18:44;;;;;;;2.13;0.77;;;7.70;99.90;;;;;;5059507;28;20221;-80
2023/04/13 03:21:11;;;;;;;3.40;0.53;;;7.70;99.90;;;;;;5061487;28;20205;-79
2023/04/13 03:23:37;;;;;;;2.47;0.90;;;7.70;99.90;;;;;;5060027;28;20291;-79
2023/04/13 03:26:03;;;;;;;5.13;0.53;;;7.70;99.90;;;;;;5060398;28;20187;-81
2023/04/13 03:28:28;;;;;;;3.90;0.70;;;7.70;99.90;;;;;;5059661;28;20202;-79
2023/04/13 03:30:54;;;;;;;2.50;0.73;;;7.70;99.90;;;;;;5061121;28;20214;-79
2023/04/13 03:33:20;;;;;;;2.03;0.60;;;7.70;99.90;;;;;;5059561;28;20245;-80
2023/04/13 03:35:45;;;;;;;4.53;0.73;;;7.70;99.90;;;;;;5059087;28;20237;-80
2023/04/13 03:38:11;;;;;;;1.67;0.53;;;7.70;99.90;;;;;;5061776;28;20171;-80
2023/04/13 03:40:37;;;;;;;3.13;0.50;;;7.80;99.90;;;;;;5060753;28;20291;-80
2023/04/13 03:43:02;;;;;;;0.87;0.40;;;7.80;99.90;;;;;;5060336;28;20730;-81
2023/04/13 03:45:28;;;;;;;1.93;0.70;;;7.90;99.90;;;;;;5060093;28;20201;-80
2023/04/13 03:47:53;;;;;;;1.97;0.60;;;7.90;99.90;;;;;;5060969;28;20278;-80
2023/04/13 03:50:19;;;;;;;1.07;0.50;;;7.90;99.90;;;;;;5060814;28;20548;-81
2023/04/13 03:52:44;;;;;;;1.43;0.60;;;7.80;99.90;;;;;;5060505;28;20671;-80
2023/04/13 03:55:10;;;;;;;1.20;0.50;;;7.80;99.90;;;;;;5061724;28;20259;-80
2023/04/13 03:57:36;;;;;;;5.40;0.83;;;7.80;99.90;;;;;;5060645;28;20171;-81
2023/04/13 04:00:02;;;;;;;2.40;0.70;;;7.80;99.90;;;;;;5059409;28;20175;-80
2023/04/13 04:02:28;;;;;;;1.13;0.50;;;7.80;99.90;;;;;;5060392;28;20541;-80
2023/04/13 04:04:53;;;;;;;1.00;0.60;;;7.80;99.90;;;;;;5061139;28;20176;-81
2023/04/13 04:07:22;;;;;;;4.20;0.63;;;7.80;99.90;;;;;;5060840;28;20643;-80
2023/04/13 04:09:47;;;;;;;1.73;0.60;;;7.80;99.90;;;;;;5061158;28;20175;-80
2023/04/13 04:12:13;;;;;;;2.30;0.60;;;7.70;99.90;;;;;;5059609;28;20188;-81
2023/04/13 04:14:38;;;;;;;4.60;0.73;;;7.70;99.90;;;;;;5060557;28;20183;-80
2023/04/13 04:17:04;;;;;;;1.27;0.70;;;7.70;99.90;;;;;;5060766;28;20172;-80
2023/04/13 04:19:30;;;;;;;0.37;0.37;;;7.70;99.90;;;;;;5060531;28;20254;-80
2023/04/13 04:21:56;;;;;;;1.13;0.60;;;7.70;99.90;;;;;;5060769;28;20543;-80
2023/04/13 04:24:22;;;;;;;5.43;0.80;;;7.60;99.90;;;;;;5060559;28;20195;-79
2023/04/13 04:26:49;;;;;;;3.17;0.60;;;7.60;99.90;;;;;;5060026;28;20542;-80
2023/04/13 04:29:21;;;;;;;3.80;0.60;;;7.60;99.90;;;;;;5059622;28;20196;-80
2023/04/13 04:31:51;;;;;;;1.20;0.63;;;7.60;99.90;;;;;;5060548;28;20178;-80
2023/04/13 04:34:17;;;;;;;1.67;0.70;;;7.60;99.90;;;;;;5061108;28;20184;-80
2023/04/13 04:36:49;;;;;;;2.73;1.00;;;7.60;99.90;;;;;;5059612;28;20548;-79
2023/04/13 04:39:25;;;;;;;6.53;1.00;;;7.60;99.90;;;;;;5059070;28;20168;-80
2023/04/13 04:42:01;;;;;;;2.93;0.70;;;7.60;99.90;;;;;;5061374;28;20182;-80
2023/04/13 04:44:29;;;;;;;4.33;0.90;;;7.60;99.90;;;;;;5061952;28;20194;-80
2023/04/13 04:46:55;;;;;;;1.57;0.50;;;7.50;99.90;;;;;;5062441;28;20199;-80
2023/04/13 04:49:21;;;;;;;2.93;0.80;;;7.50;99.90;;;;;;5076950;28;20214;-80
2023/04/13 04:51:50;;;;;;;2.03;0.67;;;7.50;99.90;;;;;;5076240;28;20222;-80
2023/04/13 04:54:17;;;;;;;1.40;0.70;;;7.50;99.90;;;;;;5064919;28;20187;-81
2023/04/13 04:56:44;;;;;;;1.17;0.60;;;7.50;99.90;;;;;;5059355;28;20571;-79
2023/04/13 04:59:09;;;;;;;1.27;0.73;;;7.50;99.90;;;;;;5058963;28;20179;-81
2023/04/13 05:01:35;;;;;;;2.87;0.70;;;7.50;99.90;;;;;;5058478;28;20183;-80
2023/04/13 05:04:01;;;;;;;3.27;1.00;;;7.50;99.90;;;;;;5059520;28;20203;-80
2023/04/13 05:06:31;;;;;;;2.83;0.70;;;7.40;99.90;;;;;;5058407;28;20184;-80
2023/04/13 05:08:58;;;;;;;3.03;1.17;;;7.40;99.90;;;;;;5058732;28;20220;-80
2023/04/13 05:11:24;;;;;;;1.23;0.60;;;7.40;99.90;;;;;;5058090;28;20199;-81
2023/04/13 05:13:50;;;;;;;1.07;0.67;;;7.40;99.90;;;;;;5059238;28;20188;-80
2023/04/13 05:16:16;;;;;;;4.00;1.10;;;7.40;99.90;;;;;;5059562;28;20179;-80
2023/04/13 05:18:47;;;;;;;2.67;0.63;;;7.40;99.90;;;;;;5059977;28;20202;-80
2023/04/13 05:21:13;;;;;;;2.87;0.97;;;7.40;99.90;;;;;;5058512;28;20186;-82
2023/04/13 05:23:39;;;;;;;2.80;0.80;;;7.50;99.90;;;;;;5058992;28;20638;-80
2023/04/13 05:26:05;;;;;;;1.73;0.70;;;7.50;99.90;;;;;;5059881;28;20190;-81
2023/04/13 05:28:33;;;;;;;1.57;0.80;;;7.50;99.90;;;;;;5058223;28;20324;-80
2023/04/13 05:31:06;;;;;;;2.07;0.80;;;7.40;99.90;;;;;;5057333;28;20179;-80
2023/04/13 05:33:33;;;;;;;2.87;0.80;;;7.50;99.90;;;;;;5058435;28;20219;-80
2023/04/13 05:35:58;;;;;;;2.73;1.13;;;7.50;99.90;;;;;;5057301;28;20175;-80
2023/04/13 05:38:24;;;;;;;3.33;0.90;;;7.50;99.90;;;;;;5057602;28;20180;-80
2023/04/13 05:40:50;;;;;;;0.97;0.77;;;7.60;99.90;;;;;;5056971;28;20191;-80
2023/04/13 05:43:16;;;;;;;2.80;0.80;;;7.60;99.90;;;;;;5057571;28;20200;-80
2023/04/13 05:45:42;;;;;;;2.13;0.90;;;7.70;99.90;;;;;;5057028;28;20563;-80
2023/04/13 05:48:07;;;;;;;2.60;1.00;;;7.60;99.90;;;;;;5057442;28;20207;-81
2023/04/13 05:50:33;;;;;;;2.33;0.97;;;7.70;99.90;;;;;;5058953;28;20203;-80
2023/04/13 05:52:59;;;;;;;2.90;1.20;;;7.70;99.90;;;;;;5061953;28;20732;-80
2023/04/13 05:55:26;;;;;;;1.70;1.07;;;7.70;99.90;;;;;;5061800;28;20179;-80
2023/04/13 05:57:52;;;;;;;2.00;1.00;;;7.80;99.90;;;;;;5061169;28;20179;-81
2023/04/13 06:00:19;;;;;;;4.00;1.00;;;7.80;99.90;;;;;;5061203;28;20199;-81
2023/04/13 06:02:47;;;;;;;2.50;1.00;;;7.80;99.90;;;;;;5060656;28;20223;-81
2023/04/13 06:05:14;;;;;;;4.10;1.13;;;7.80;99.90;;;;;;5062371;28;20229;-79
2023/04/13 06:07:43;;;;;;;3.07;1.47;;;7.80;99.90;;;;;;5063065;28;20206;-80
2023/04/13 06:10:10;;;;;;;3.33;1.03;;;7.80;99.90;;;;;;5062197;28;20198;-81
2023/04/13 06:12:36;;;;;;;1.77;1.07;;;7.90;99.90;;;;;;5061150;28;20245;-80
2023/04/13 06:15:02;;;;;;;3.57;0.93;;;7.80;99.90;;;;;;5062011;28;20159;-79
2023/04/13 06:17:28;;;;;;;2.60;0.90;;;7.80;99.90;;;;;;5062969;28;20267;-81
2023/04/13 06:19:54;;;;;;;3.17;0.87;;;7.80;99.90;;;;;;5061085;28;20206;-81
2023/04/13 06:22:19;;;;;;;1.47;1.00;;;7.90;99.90;;;;;;5062900;28;20221;-80
2023/04/13 06:24:45;;;;;;;4.30;1.23;;;7.90;99.90;;;;;;5063753;28;20213;-81
2023/04/13 06:27:11;;;;;;;4.20;1.20;;;8.00;99.90;;;;;;5063270;28;20172;-81
2023/04/13 06:29:37;;;;;;;3.23;0.93;;;8.00;99.90;;;;;;5063589;28;20238;-80
2023/04/13 06:32:03;;;;;;;4.40;1.30;;;8.00;99.90;;;;;;5061763;28;20179;-80
2023/04/13 06:34:29;;;;;;;5.30;1.53;;;8.00;99.90;;;;;;5063503;28;20274;-81
2023/04/13 06:36:56;;;;;;;3.67;0.80;;;8.10;99.90;;;;;;5063229;28;20172;-79
2023/04/13 06:39:21;;;;;;;1.93;1.00;;;8.10;99.90;;;;;;5062683;28;20176;-81
2023/04/13 06:41:47;;;;;;;5.87;1.30;;;8.10;99.90;;;;;;5063612;28;20196;-81
2023/04/13 06:44:13;;;;;;;3.40;1.17;;;8.20;99.90;;;;;;5062376;28;20206;-81
2023/04/13 06:46:38;;;;;;;2.83;1.13;;;8.20;99.90;;;;;;5062621;28;20187;-80
2023/04/13 06:49:04;;;;;;;3.23;1.03;;;8.30;99.90;;;;;;5063276;28;20214;-81
2023/04/13 06:51:30;;;;;;;2.73;1.50;;;8.30;99.90;;;;;;5062091;28;20552;-80
2023/04/13 06:53:55;;;;;;;4.73;1.30;;;8.30;99.90;;;;;;5062297;28;20192;-80
2023/04/13 06:56:21;;;;;;;3.73;1.10;;;8.30;99.90;;;;;;5062764;28;20638;-80
2023/04/13 06:58:47;;;;;;;5.03;1.10;;;8.30;99.90;;;;;;5060922;28;20176;-81
2023/04/13 07:01:12;;;;;;;1.53;0.80;;;8.30;99.90;;;;;;5063141;28;20171;-80
2023/04/13 07:03:38;;;;;;;1.80;1.20;;;8.40;99.90;;;;;;5059565;28;20230;-81
2023/04/13 07:06:04;;;;;;;3.83;1.40;;;8.40;99.90;;;;;;5063052;28;20172;-81
2023/04/13 07:08:31;;;;;;;3.53;1.40;;;8.50;99.90;;;;;;5062546;28;20591;-81
2023/04/13 07:10:57;;;;;;;4.10;0.97;;;8.60;99.90;;;;;;5061082;28;20232;-80
2023/04/13 07:13:24;;;;;;;3.73;0.97;;;8.60;99.90;;;;;;5062672;28;20266;-80
2023/04/13 07:15:50;;;;;;;1.33;0.67;;;8.70;99.90;;;;;;5061004;28;20181;-81
2023/04/13 07:18:16;;;;;;;3.00;1.00;;;8.70;99.90;;;;;;5063001;28;20215;-81
2023/04/13 07:20:41;;;;;;;3.77;0.90;;;8.70;99.90;;;;;;5062718;28;20175;-80
2023/04/13 07:23:08;;;;;;;3.30;0.77;;;8.70;99.90;;;;;;5060889;28;20245;-81
2023/04/13 07:25:34;;;;;;;3.60;1.10;;;8.80;99.90;;;;;;5062338;28;20180;-81
2023/04/13 07:27:59;;;;;;;2.83;0.87;;;8.70;99.90;;;;;;5060940;28;20751;-81
2023/04/13 07:30:26;;;;;;;2.73;0.83;;;8.60;99.90;;;;;;5062100;28;20267;-81
2023/04/13 07:32:52;;;;;;;3.00;1.00;;;8.60;99.90;;;;;;5062012;28;20240;-80
2023/04/13 07:35:17;;;;;;;3.87;1.10;;;8.70;99.90;;;;;;5063328;28;20164;-81
2023/04/13 07:37:45;;;;;;;3.17;1.00;;;8.60;99.90;;;;;;5062140;28;20176;-81
2023/04/13 07:40:11;;;;;;;2.57;1.10;;;8.50;99.90;;;;;;5062133;28;20186;-81
2023/04/13 07:42:37;;;;;;;1.47;0.90;;;8.50;99.90;;;;;;5061966;28;20211;-80
2023/04/13 07:45:04;;;;;;;1.83;0.77;;;8.60;99.90;;;;;;5061511;28;20175;-80
2023/04/13 07:47:29;;;;;;;3.33;1.03;;;8.60;99.90;;;;;;5062276;28;20195;-81
2023/04/13 07:49:55;;;;;;;2.40;0.83;;;8.60;99.90;;;;;;5062402;28;20172;-80
2023/04/13 07:52:21;;;;;;;1.93;0.90;;;8.60;99.90;;;;;;5059886;28;20171;-80
2023/04/13 07:54:47;;;;;;;4.13;1.20;;;8.60;99.90;;;;;;5061592;28;20226;-80
2023/04/13 07:57:12;;;;;;;4.03;0.83;;;8.60;99.90;;;;;;5062334;28;20221;-80
2023/04/13 07:59:38;;;;;;;2.67;1.00;;;8.60;99.90;;;;;;5062469;28;20239;-81
2023/04/13 08:02:04;;;;;;;3.07;0.90;;;8.60;99.90;;;;;;5060083;28;20176;-80
2023/04/13 08:04:30;;;;;;;1.77;1.00;;;8.60;99.90;;;;;;5062471;28;20573;-80
2023/04/13 08:06:56;;;;;;;4.43;1.23;;;8.70;99.90;;;;;;5069085;28;20222;-79
2023/04/13 08:09:21;;;;;;;2.27;1.00;;;8.70;99.90;;;;;;5078499;28;20199;-81
2023/04/13 08:11:48;;;;;;;1.27;0.70;;;8.70;99.90;;;;;;5078503;28;20209;-80
2023/04/13 08:14:14;;;;;;;7.57;1.37;;;8.70;99.90;;;;;;5059486;28;20210;-81
2023/04/13 08:16:39;;;;;;;4.00;0.97;;;8.70;99.90;;;;;;5058436;28;20548;-81
2023/04/13 08:19:05;;;;;;;2.63;0.90;;;8.80;99.90;;;;;;5059318;28;20659;-80
2023/04/13 08:21:32;;;;;;;3.37;1.40;;;8.80;99.90;;;;;;5059968;28;20186;-82
2023/04/13 08:23:57;;;;;;;2.97;1.23;;;8.80;99.90;;;;;;5058240;28;20191;-81
2023/04/13 08:26:23;;;;;;;4.13;0.90;;;8.90;99.90;;;;;;5063461;28;20213;-80
2023/04/13 08:28:51;;;;;;;5.00;1.30;;;8.90;99.90;;;;;;5072257;28;20214;-81
2023/04/13 08:31:17;;;;;;;4.17;1.33;;;8.90;99.90;;;;;;5073068;28;20207;-80
2023/04/13 08:33:42;;;;;;;6.10;1.30;;;9.00;99.90;;;;;;5073386;28;20195;-80
2023/04/13 08:36:08;;;;;;;4.43;1.20;;;9.00;99.90;;;;;;5074971;28;20174;-80
2023/04/13 08:38:34;;;;;;;2.20;0.80;;;9.00;99.90;;;;;;5064063;28;20183;-80
2023/04/13 08:41:02;;;;;;;6.27;1.27;;;9.10;99.90;;;;;;5060813;28;20229;-80
2023/04/13 08:43:27;;;;;;;3.93;1.20;;;9.10;99.90;;;;;;5061425;28;20191;-80
2023/04/13 08:45:53;;;;;;;4.77;1.23;;;9.10;99.90;;;;;;5060920;28;20210;-80
2023/04/13 08:48:21;;;;;;;4.60;1.30;;;9.10;99.90;;;;;;5060948;28;20199;-79
2023/04/13 08:50:52;;;;;;;4.83;1.47;;;9.10;99.90;;;;;;5061335;28;20259;-80
2023/04/13 08:53:18;;;;;;;4.70;1.13;;;9.20;99.90;;;;;;5062114;28;20278;-80
2023/04/13 08:55:44;;;;;;;6.07;1.20;;;9.20;99.90;;;;;;5063536;28;20655;-80
2023/04/13 08:58:12;;;;;;;4.30;1.47;;;9.20;99.90;;;;;;5060271;28;20187;-80
2023/04/13 09:00:40;;;;;;;9.07;1.67;;;9.20;99.90;;;;;;5058432;28;20237;-80
2023/04/13 09:03:06;;;;;;;4.97;1.63;;;9.20;99.90;;;;;;5060297;28;20226;-80
2023/04/13 09:05:37;;;;;;;4.10;1.80;;;9.20;99.90;;;;;;5059565;28;20187;-79
2023/04/13 09:08:05;;;;;;;7.47;2.40;;;9.20;99.90;;;;;;5060248;28;20199;-80
2023/04/13 09:10:31;;;;;;;5.33;1.17;;;9.20;99.90;;;;;;5059865;28;20164;-79
2023/04/13 09:12:56;;;;;;;4.70;1.80;;;9.20;99.90;;;;;;5057862;28;20222;-80
2023/04/13 09:15:23;;;;;;;5.83;1.60;;;9.20;99.90;;;;;;5059748;28;20180;-79
2023/04/13 09:17:49;;;;;;;5.13;1.40;;;9.30;99.90;;;;;;5059395;28;20175;-80
2023/04/13 09:20:22;;;;;;;8.17;1.67;;;9.50;99.90;;;;;;5058466;28;20661;-80
2023/04/13 09:22:51;;;;;;;6.17;1.83;;;9.60;99.90;;;;;;5059086;28;20199;-80
2023/04/13 09:25:26;;;;;;;10.67;3.93;;;9.80;99.90;;;;;;5059725;28;20186;-80
2023/04/13 09:27:52;;;;;;;5.17;1.30;;;9.90;99.90;;;;;;5059384;28;20195;-79
2023/04/13 09:30:19;;;;;;;5.53;1.30;;;10.00;99.90;;;;;;5059064;28;20198;-80
2023/04/13 09:32:45;;;;;;;7.93;1.50;;;10.10;99.90;;;;;;5057432;28;20739;-80
2023/04/13 09:35:12;;;;;;;5.03;1.60;;;10.20;99.90;;;;;;5058961;28;20163;-80
2023/04/13 09:37:40;;;;;;;7.73;1.87;;;10.20;99.90;;;;;;5057653;28;20175;-80
2023/04/13 09:40:14;;;;;;;3.37;1.60;;;10.20;99.90;;;;;;5060239;28;20266;-79
2023/04/13 09:43:00;;;;;;;4.33;1.40;;;10.10;99.90;;;;;;5059313;28;20700;-80
2023/04/13 09:45:34;;;;;;;5.27;1.93;;;10.10;99.90;;;;;;5057437;28;20178;-80
2023/04/13 09:48:01;;;;;;;8.27;2.37;;;10.10;99.90;;;;;;5057676;28;20256;-78
2023/04/13 09:50:27;;;;;;;7.87;1.50;;;10.10;99.90;;;;;;5057384;28;20186;-80
2023/04/13 09:53:09;;;;;;;7.60;1.93;;;10.10;99.90;;;;;;5057983;28;20250;-80
2023/04/13 09:55:36;;;;;;;4.70;1.43;;;10.10;99.90;;;;;;5058498;28;20168;-80
2023/04/13 09:58:16;;;;;;;4.07;1.10;;;10.10;99.90;;;;;;5058849;28;20180;-79
2023/04/13 10:00:44;;;;;;;6.13;1.43;;;10.10;99.90;;;;;;5058897;28;20271;-80
2023/04/13 10:03:14;;;;;;;7.93;1.50;;;10.00;99.90;;;;;;5058682;28;20245;-80
2023/04/13 10:05:41;;;;;;;4.27;1.83;;;10.10;99.90;;;;;;5056559;28;20184;-80
2023/04/13 10:08:08;;;;;;;6.33;1.50;;;10.10;99.90;;;;;;5056567;28;20206;-80
2023/04/13 10:10:35;;;;;;;8.40;1.67;;;10.00;99.90;;;;;;5058408;28;20227;-79
2023/04/13 10:13:06;;;;;;;5.80;1.47;;;10.00;99.90;;;;;;5058245;28;20223;-79
2023/04/13 10:16:05;;;;;;;10.43;1.90;;;10.00;99.90;;;;;;5057787;28;20202;-81
2023/04/13 10:18:51;;;;;;;8.23;1.53;;;10.00;99.90;;;;;;5058861;28;20183;-80
2023/04/13 10:21:18;;;;;;;6.70;2.07;;;10.10;99.90;;;;;;5059118;28;20188;-80
2023/04/13 10:23:44;;;;;;;5.73;1.90;;;10.20;99.90;;;;;;5059364;28;20281;-79
2023/04/13 10:26:10;;;;;;;13.87;2.10;;;10.20;99.90;;;;;;5058307;28;20176;-80
2023/04/13 10:28:46;;;;;;;6.67;1.63;;;10.30;99.90;;;;;;5058068;28;20593;-79
2023/04/13 10:31:13;;;;;;;9.73;1.90;;;10.30;99.90;;;;;;5058567;28;20179;-80
2023/04/13 10:33:51;;;;;;;6.07;2.00;;;10.30;99.90;;;;;;5057072;28;20191;-81
2023/04/13 10:36:17;;;;;;;5.37;2.17;;;10.50;99.90;;;;;;5058487;28;20225;-80
2023/04/13 10:38:43;;;;;;;9.87;2.60;;;10.50;99.90;;;;;;5061614;28;20651;-80
2023/04/13 10:41:09;;;;;;;8.00;1.60;;;10.60;99.90;;;;;;5061735;28;20255;-80
2023/04/13 10:43:35;;;;;;;9.37;2.00;;;10.70;99.90;;;;;;5060153;28;20223;-79
2023/04/13 10:46:05;;;;;;;20.10;2.70;;;10.90;99.90;;;;;;5060898;28;20636;-79
2023/04/13 10:48:30;;;;;;;5.73;1.50;;;11.00;99.90;;;;;;5061892;28;20535;-80
2023/04/13 10:50:57;;;;;;;8.43;1.53;;;11.10;99.90;;;;;;5061916;28;20175;-81
2023/04/13 10:53:24;;;;;;;7.83;1.80;;;11.30;99.90;;;;;;5060194;28;20195;-80
2023/04/13 10:55:49;;;;;;;3.90;1.37;;;11.30;99.90;;;;;;5061503;28;20222;-81
2023/04/13 10:58:17;;;;;;;4.97;1.53;;;11.30;99.90;;;;;;5061972;28;20179;-80
2023/04/13 11:00:44;;;;;;;7.43;1.70;;;11.20;99.90;;;;;;5062299;28;20167;-79
2023/04/13 11:03:10;;;;;;;6.47;1.47;;;11.10;99.90;;;;;;5061667;28;20241;-79
2023/04/13 11:05:35;;;;;;;4.33;1.33;;;11.10;99.90;;;;;;5061478;28;20183;-79
2023/04/13 11:08:03;;;;;;;3.53;1.30;;;11.10;99.90;;;;;;5061952;28;20547;-80
2023/04/13 11:10:30;;;;;;;7.90;1.83;;;11.10;99.90;;;;;;5062024;28;20164;-79
2023/04/13 11:12:57;;;;;;;9.70;2.00;;;11.10;99.90;;;;;;5060974;28;20260;-79
2023/04/13 11:15:28;;;;;;;8.17;2.20;;;11.20;99.90;;;;;;5060005;28;20167;-80
2023/04/13 11:17:56;;;;;;;5.20;1.53;;;11.20;99.90;;;;;;5060629;28;20179;-80
2023/04/13 11:20:40;;;;;;;5.63;1.67;;;11.30;99.90;;;;;;5062109;28;20182;-80
2023/04/13 11:23:14;;;;;;;4.50;1.73;;;11.20;99.90;;;;;;5062524;28;20201;-80
2023/04/13 11:26:00;;;;;;;11.47;1.83;;;11.20;99.90;;;;;;5071079;28;20175;-81
2023/04/13 11:28:45;;;;;;;4.87;1.77;;;11.20;99.90;;;;;;5078221;28;20188;-81
2023/04/13 11:31:11;;;;;;;7.27;1.40;;;11.40;99.90;;;;;;5066475;28;20171;-80
2023/04/13 11:33:38;;;;;;;7.50;1.47;;;11.20;99.90;;;;;;5061197;28;20183;-80
2023/04/13 11:36:04;;;;;;;8.63;1.50;;;11.30;99.90;;;;;;5059706;28;20194;-80
2023/04/13 11:38:31;;;;;;;5.60;1.30;;;11.30;99.90;;;;;;5061112;28;20176;-81
2023/04/13 11:41:05;;;;;;;5.80;1.40;;;11.40;99.90;;;;;;5059325;28;20172;-81
2023/04/13 11:43:31;;;;;;;8.47;1.67;;;11.40;99.90;;;;;;5059393;28;20708;-80
2023/04/13 11:45:57;;;;;;;4.43;1.23;;;11.40;99.90;;;;;;5060283;28;20199;-81
2023/04/13 11:48:23;;;;;;;7.27;1.80;;;11.50;99.90;;;;;;5060528;28;20654;-80
2023/04/13 11:50:49;;;;;;;10.10;2.10;;;11.50;99.90;;;;;;5061121;28;20172;-81
2023/04/13 11:53:15;;;;;;;6.67;1.80;;;11.50;99.90;;;;;;5059292;28;20195;-81
2023/04/13 11:55:41;;;;;;;7.83;1.67;;;11.60;99.90;;;;;;5060921;28;20168;-80
2023/04/13 11:58:15;;;;;;;10.33;2.07;;;11.50;99.90;;;;;;5059739;28;20186;-80
2023/04/13 12:00:41;;;;;;;3.80;1.30;;;11.60;99.90;;;;;;5060432;28;20237;-80
2023/04/13 12:03:18;;;;;;;5.83;1.53;;;11.70;99.90;;;;;;5058961;28;20620;-80
2023/04/13 12:05:45;;;;;;;5.13;1.37;;;11.80;99.90;;;;;;5060818;28;20160;-81
2023/04/13 12:08:22;;;;;;;4.80;1.13;;;11.90;99.90;;;;;;5060148;28;20591;-80
2023/04/13 12:10:56;;;;;;;6.60;1.67;;;12.00;99.90;;;;;;5060447;28;20180;-81
2023/04/13 12:13:22;;;;;;;5.83;1.43;;;12.10;99.90;;;;;;5059096;28;20240;-80
2023/04/13 12:15:48;;;;;;;7.47;2.70;;;12.10;99.90;;;;;;5059738;28;20247;-81
2023/04/13 12:18:14;;;;;;;4.20;1.60;;;12.10;99.90;;;;;;5059218;28;20633;-81
2023/04/13 12:20:43;;;;;;;5.10;1.30;;;12.20;99.90;;;;;;5057824;28;20233;-82
2023/04/13 12:23:19;;;;;;;6.90;1.40;;;12.20;99.90;;;;;;5060027;28;20202;-80
2023/04/13 12:25:59;;;;;;;3.87;1.43;;;12.10;99.90;;;;;;5058627;28;20175;-81
2023/04/13 12:28:30;;;;;;;6.93;2.00;;;12.20;99.90;;;;;;5058653;28;20277;-80
2023/04/13 12:31:06;;;;;;;7.80;1.57;;;12.10;99.90;;;;;;5059040;28;20172;-80
2023/04/13 12:33:32;;;;;;;3.97;1.30;;;12.10;99.90;;;;;;5059560;28;20289;-80
2023/04/13 12:35:58;;;;;;;7.97;1.60;;;12.10;99.90;;;;;;5059267;28;20281;-80
2023/04/13 12:38:24;;;;;;;8.03;1.77;;;12.10;99.90;;;;;;5059454;28;20243;-81
2023/04/13 12:41:00;;;;;;;7.40;1.57;;;12.20;99.90;;;;;;5059158;28;20199;-79
2023/04/13 12:43:26;;;;;;;3.20;1.03;;;12.10;96.00;;;;;;5057729;28;20659;-80
2023/04/13 12:45:53;;;;;;;4.27;1.40;;;12.10;99.90;;;;;;5057836;28;20183;-80
2023/04/13 12:48:19;;;;;;;3.13;1.30;;;12.10;99.90;;;;;;5059179;28;20191;-80
2023/04/13 12:50:45;;;;;;;5.90;1.50;;;12.10;99.90;;;;;;5057253;28;20180;-80
2023/04/13 12:53:11;;;;;;;5.73;1.50;;;12.20;99.90;;;;;;5057321;28;20289;-81
2023/04/13 12:55:40;;;;;;;5.13;1.40;;;12.40;99.90;;;;;;5057036;28;20167;-81